createdAt,value
2019-05-15T00:01:28.468Z,100386.66
2019-05-15T00:04:00.442Z,100381.41
2019-05-15T00:06:32.740Z,100373.80
2019-05-15T00:09:07.961Z,100376.23
2019-05-15T00:11:39.721Z,100374.22
2019-05-15T00:14:12.216Z,100374.22
2019-05-15T00:16:44.689Z,100375.05
2019-05-15T00:19:18.839Z,100376.23
2019-05-15T00:21:50.927Z,100373.59
2019-05-15T00:24:23.234Z,100377.14
2019-05-15T00:26:56.186Z,100373.31
2019-05-15T00:29:28.949Z,100376.87
2019-05-15T00:32:04.864Z,100380.64
2019-05-15T00:34:37.883Z,100393.03
2019-05-15T00:37:11.005Z,100401.80
2019-05-15T00:39:43.226Z,100406.16
2019-05-15T00:42:15.388Z,100397.48
2019-05-15T00:44:49.393Z,100390.11
2019-05-15T00:47:21.682Z,100393.42
2019-05-15T00:49:54.153Z,100392.64
2019-05-15T00:52:28.225Z,100394.88
2019-05-15T00:55:00.607Z,100399.09
2019-05-15T00:57:32.776Z,100391.23
2019-05-15T01:00:08.198Z,100389.61
2019-05-15T01:02:40.297Z,100387.41
2019-05-15T01:05:13.009Z,100393.03
2019-05-15T01:07:45.246Z,100393.83
2019-05-15T01:10:19.365Z,100396.28
2019-05-15T01:12:51.659Z,100388.42
2019-05-15T01:15:24.745Z,100401.08
2019-05-15T01:17:58.293Z,100397.47
2019-05-15T01:20:31.072Z,100395.63
2019-05-15T01:23:03.404Z,100395.56
2019-05-15T01:25:35.541Z,100401.94
2019-05-15T01:28:09.573Z,100399.28
2019-05-15T01:30:41.953Z,100397.98
2019-05-15T01:33:14.378Z,100388.08
2019-05-15T01:35:48.585Z,100387.38
2019-05-15T01:38:20.625Z,100386.50
2019-05-15T01:40:52.879Z,100382.22
2019-05-15T01:43:25.223Z,100371.30
2019-05-15T01:45:58.868Z,100371.42
2019-05-15T01:48:31.263Z,100367.38
2019-05-15T01:51:03.726Z,100361.91
2019-05-15T01:53:38.335Z,100365.69
2019-05-15T01:56:10.130Z,100361.63
2019-05-15T01:58:42.499Z,100367.77
2019-05-15T02:01:14.700Z,100371.92
2019-05-15T02:03:49.294Z,100371.63
2019-05-15T02:06:21.262Z,100368.53
2019-05-15T02:08:53.772Z,100389.77
2019-05-15T02:11:25.937Z,100379.05
2019-05-15T02:13:58.692Z,100374.54
2019-05-15T02:16:31.087Z,100378.23
2019-05-15T02:19:03.140Z,100384.39
2019-05-15T02:21:35.305Z,100385.13
2019-05-15T02:24:08.020Z,100389.24
2019-05-15T02:26:40.253Z,100388.34
2019-05-15T02:29:14.565Z,100384.44
2019-05-15T02:31:50.206Z,100381.11
2019-05-15T02:34:20.990Z,100385.98
2019-05-15T02:36:53.139Z,100393.28
2019-05-15T02:39:28.616Z,100396.97
2019-05-15T02:41:59.722Z,100398.67
2019-05-15T02:44:32.570Z,100396.52
2019-05-15T02:47:04.720Z,100401.03
2019-05-15T02:49:39.651Z,100401.52
2019-05-15T02:52:11.105Z,100405.66
2019-05-15T02:54:43.510Z,100406.03
2019-05-15T02:57:18.970Z,100403.00
2019-05-15T02:59:50.089Z,100401.59
2019-05-15T03:02:22.359Z,100404.62
2019-05-15T03:04:55.069Z,100399.02
2019-05-15T03:07:29.450Z,100399.21
2019-05-15T03:10:01.447Z,100395.83
2019-05-15T03:12:33.750Z,100403.08
2019-05-15T03:15:09.180Z,100395.69
2019-05-15T03:17:41.106Z,100397.39
2019-05-15T03:20:14.805Z,100403.91
2019-05-15T03:22:49.288Z,100398.15
2019-05-15T03:25:20.981Z,100395.19
2019-05-15T03:27:53.299Z,100408.50
2019-05-15T03:30:25.540Z,100413.96
2019-05-15T03:33:07.765Z,100410.58
2019-05-15T03:35:33.168Z,100394.77
2019-05-15T03:38:09.119Z,100392.56
2019-05-15T03:40:40.593Z,100397.80
2019-05-15T03:43:12.849Z,100405.27
2019-05-15T03:45:49.046Z,100417.97
2019-05-15T03:48:19.962Z,100414.44
2019-05-15T03:50:53.217Z,100397.06
2019-05-15T03:53:25.843Z,100395.38
2019-05-15T03:55:59.171Z,100393.44
2019-05-15T03:58:31.595Z,100412.22
2019-05-15T04:01:04.108Z,100414.97
2019-05-15T04:03:38.935Z,100413.29
2019-05-15T04:06:10.923Z,100398.29
2019-05-15T04:08:43.154Z,100396.56
2019-05-15T04:11:15.760Z,100404.72
2019-05-15T04:13:49.999Z,100415.86
2019-05-15T04:16:22.515Z,100413.56
2019-05-15T04:18:54.746Z,100408.68
2019-05-15T04:21:30.102Z,100412.80
2019-05-15T04:24:02.186Z,100408.30
2019-05-15T04:26:39.216Z,100410.22
2019-05-15T04:29:10.951Z,100406.95
2019-05-15T04:31:55.674Z,100413.27
2019-05-15T04:34:19.521Z,100409.02
2019-05-15T04:36:51.196Z,100414.14
2019-05-15T04:39:23.490Z,100404.28
2019-05-15T04:41:58.849Z,100403.82
2019-05-15T04:44:30.008Z,100396.50
2019-05-15T04:47:02.387Z,100387.98
2019-05-15T04:49:34.588Z,100391.51
2019-05-15T04:52:10.101Z,100394.64
2019-05-15T04:54:41.176Z,100405.62
2019-05-15T04:57:13.566Z,100403.23
2019-05-15T04:59:49.466Z,100393.25
2019-05-15T05:02:26.689Z,100386.41
2019-05-15T05:04:54.355Z,100378.38
2019-05-15T05:07:29.546Z,100383.65
2019-05-15T05:10:01.789Z,100384.08
2019-05-15T05:12:34.157Z,100384.33
2019-05-15T05:15:08.433Z,100379.50
2019-05-15T05:17:40.483Z,100384.87
2019-05-15T05:20:12.766Z,100383.64
2019-05-15T05:22:45.009Z,100394.47
2019-05-15T05:25:18.272Z,100390.16
2019-05-15T05:27:50.740Z,100386.41
2019-05-15T05:30:23.943Z,100391.54
2019-05-15T05:32:57.993Z,100390.13
2019-05-15T05:35:30.329Z,100395.66
2019-05-15T05:38:02.963Z,100395.91
2019-05-15T05:40:38.328Z,100395.66
2019-05-15T05:43:09.827Z,100386.23
2019-05-15T05:45:42.016Z,100386.80
2019-05-15T05:48:14.319Z,100383.48
2019-05-15T05:50:49.653Z,100387.77
2019-05-15T05:53:21.645Z,100394.05
2019-05-15T05:55:53.999Z,100387.55
2019-05-15T05:58:26.240Z,100383.11
2019-05-15T06:00:58.715Z,100389.09
2019-05-15T06:03:30.984Z,100394.89
2019-05-15T06:06:03.284Z,100398.28
2019-05-15T06:08:35.651Z,100390.78
2019-05-15T06:11:09.824Z,100388.20
2019-05-15T06:13:41.788Z,100388.39
2019-05-15T06:16:14.036Z,100394.36
2019-05-15T06:18:46.258Z,100392.20
2019-05-15T06:21:18.572Z,100394.06
2019-05-15T06:23:55.137Z,100392.91
2019-05-15T06:26:24.686Z,100394.70
2019-05-15T06:28:58.297Z,100396.68
2019-05-15T06:31:34.023Z,100390.14
2019-05-15T06:34:08.292Z,100386.66
2019-05-15T06:36:40.330Z,100387.02
2019-05-15T06:39:12.712Z,100386.77
2019-05-15T06:41:44.954Z,100382.66
2019-05-15T06:44:18.791Z,100379.06
2019-05-15T06:46:51.102Z,100371.19
2019-05-15T06:49:23.450Z,100370.27
2019-05-15T06:51:58.469Z,100384.05
2019-05-15T06:54:31.003Z,100376.34
2019-05-15T06:57:03.378Z,100374.08
2019-05-15T06:59:39.113Z,100380.04
2019-05-15T07:02:11.205Z,100378.81
2019-05-15T07:04:43.472Z,100370.06
2019-05-15T07:07:18.061Z,100373.08
2019-05-15T07:09:49.670Z,100373.09
2019-05-15T07:12:22.071Z,100372.49
2019-05-15T07:14:54.237Z,100369.58
2019-05-15T07:17:28.590Z,100359.20
2019-05-15T07:20:00.543Z,100358.84
2019-05-15T07:22:32.818Z,100366.95
2019-05-15T07:25:05.254Z,100359.07
2019-05-15T07:27:38.951Z,100361.88
2019-05-15T07:30:12.704Z,100360.81
2019-05-15T07:32:45.410Z,100347.31
2019-05-15T07:35:19.169Z,100352.33
2019-05-15T07:37:51.548Z,100353.57
2019-05-15T07:40:24.029Z,100353.75
2019-05-15T07:42:58.534Z,100357.31
2019-05-15T07:45:30.266Z,100349.21
2019-05-15T07:48:02.608Z,100346.13
2019-05-15T07:50:38.720Z,100352.67
2019-05-15T07:53:10.257Z,100343.58
2019-05-15T07:55:42.382Z,100349.02
2019-05-15T07:58:14.697Z,100349.02
2019-05-15T08:00:49.180Z,100353.25
2019-05-15T08:03:20.829Z,100354.40
2019-05-15T08:05:59.062Z,100351.45
2019-05-15T08:08:28.968Z,100348.59
2019-05-15T08:11:14.862Z,100350.27
2019-05-15T08:13:34.784Z,100355.98
2019-05-15T08:16:08.620Z,100356.99
2019-05-15T08:18:41.214Z,100355.22
2019-05-15T08:21:13.653Z,100354.75
2019-05-15T08:23:48.249Z,100357.55
2019-05-15T08:26:20.014Z,100360.55
2019-05-15T08:28:52.128Z,100363.84
2019-05-15T08:31:24.217Z,100362.81
2019-05-15T08:34:12.027Z,100368.17
2019-05-15T08:36:31.401Z,100363.39
2019-05-15T08:39:05.627Z,100367.27
2019-05-15T08:41:39.164Z,100355.24
2019-05-15T08:44:11.723Z,100355.64
2019-05-15T08:46:44.663Z,100355.75
2019-05-15T08:49:20.287Z,100363.75
2019-05-15T08:51:54.067Z,100361.78
2019-05-15T08:54:29.900Z,100362.63
2019-05-15T08:57:02.570Z,100361.84
2019-05-15T08:59:34.908Z,100357.81
2019-05-15T09:02:07.839Z,100365.41
2019-05-15T09:04:40.495Z,100356.06
2019-05-15T09:07:12.790Z,100349.23
2019-05-15T09:09:45.081Z,100346.59
2019-05-15T09:12:18.836Z,100344.38
2019-05-15T09:14:51.412Z,100346.05
2019-05-15T09:17:23.595Z,100343.14
2019-05-15T09:19:56.751Z,100339.75
2019-05-15T09:22:29.971Z,100345.39
2019-05-15T09:25:02.329Z,100343.58
2019-05-15T09:27:34.486Z,100341.33
2019-05-15T09:30:08.748Z,100332.84
2019-05-15T09:32:41.340Z,100343.45
2019-05-15T09:35:18.663Z,100334.58
2019-05-15T09:37:51.222Z,100338.09
2019-05-15T09:40:37.897Z,100328.39
2019-05-15T09:42:57.887Z,100326.97
2019-05-15T09:45:30.219Z,100323.89
2019-05-15T09:48:02.678Z,100329.53
2019-05-15T09:50:34.923Z,100328.66
2019-05-15T09:53:09.309Z,100326.36
2019-05-15T09:55:41.222Z,100325.05
2019-05-15T09:58:13.512Z,100327.58
2019-05-15T10:00:50.785Z,100324.67
2019-05-15T10:03:19.615Z,100316.94
2019-05-15T10:05:52.071Z,100318.45
2019-05-15T10:08:25.551Z,100318.45
2019-05-15T10:10:59.355Z,100321.48
2019-05-15T10:13:31.800Z,100319.03
2019-05-15T10:16:04.058Z,100311.87
2019-05-15T10:18:38.679Z,100317.52
2019-05-15T10:21:10.259Z,100315.06
2019-05-15T10:23:42.391Z,100309.96
2019-05-15T10:26:14.711Z,100313.34
2019-05-15T10:28:49.303Z,100305.34
2019-05-15T10:31:21.077Z,100307.30
2019-05-15T10:33:53.583Z,100305.03
2019-05-15T10:36:27.848Z,100296.69
2019-05-15T10:38:59.748Z,100297.53
2019-05-15T10:41:32.021Z,100291.12
2019-05-15T10:44:04.217Z,100287.74
2019-05-15T10:46:38.293Z,100287.41
2019-05-15T10:49:10.665Z,100285.98
2019-05-15T10:51:43.177Z,100288.63
2019-05-15T10:54:15.376Z,100287.27
2019-05-15T10:56:47.592Z,100279.24
2019-05-15T10:59:19.949Z,100280.50
2019-05-15T11:01:52.642Z,100280.06
2019-05-15T11:04:25.386Z,100281.88
2019-05-15T11:06:58.091Z,100279.44
2019-05-15T11:09:30.591Z,100273.98
2019-05-15T11:12:02.986Z,100279.82
2019-05-15T11:14:37.952Z,100275.70
2019-05-15T11:17:09.952Z,100279.08
2019-05-15T11:19:42.831Z,100279.70
2019-05-15T11:22:15.263Z,100277.64
2019-05-15T11:24:50.848Z,100281.50
2019-05-15T11:27:21.584Z,100276.80
2019-05-15T11:29:54.104Z,100264.20
2019-05-15T11:32:29.193Z,100257.64
2019-05-15T11:35:04.090Z,100261.20
2019-05-15T11:37:34.893Z,100261.92
2019-05-15T11:40:11.495Z,100260.87
2019-05-15T11:42:44.194Z,100262.30
2019-05-15T11:45:18.561Z,100259.41
2019-05-15T11:47:51.263Z,100254.29
2019-05-15T11:50:23.985Z,100252.48
2019-05-15T11:52:58.483Z,100253.95
2019-05-15T11:55:30.825Z,100259.84
2019-05-15T11:58:03.812Z,100255.14
2019-05-15T12:00:38.426Z,100259.34
2019-05-15T12:03:10.274Z,100261.81
2019-05-15T12:05:42.751Z,100262.00
2019-05-15T12:08:15.014Z,100255.27
2019-05-15T12:10:47.948Z,100255.73
2019-05-15T12:13:20.143Z,100256.66
2019-05-15T12:15:52.440Z,100256.03
2019-05-15T12:18:24.681Z,100253.77
2019-05-15T12:20:59.481Z,100251.45
2019-05-15T12:23:30.928Z,100249.14
2019-05-15T12:26:03.245Z,100251.77
2019-05-15T12:28:35.572Z,100249.47
2019-05-15T12:31:08.976Z,100248.05
2019-05-15T12:33:41.421Z,100253.87
2019-05-15T12:36:13.620Z,100246.70
2019-05-15T12:38:50.003Z,100244.48
2019-05-15T13:01:51.731Z,100258.58
2019-05-15T13:04:23.907Z,100256.66
2019-05-15T13:07:12.367Z,100250.70
2019-05-15T13:09:30.023Z,100255.08
2019-05-15T13:12:02.290Z,100254.14
2019-05-15T13:14:34.557Z,100253.39
2019-05-15T13:17:06.739Z,100252.81
2019-05-15T13:19:39.083Z,100250.21
2019-05-15T13:22:17.554Z,100256.33
2019-05-15T13:24:45.082Z,100245.61
2019-05-15T13:27:18.290Z,100241.83
2019-05-15T13:29:50.719Z,100243.70
2019-05-15T13:32:22.933Z,100244.17
2019-05-15T13:34:55.168Z,100247.03
2019-05-15T13:37:30.758Z,100243.44
2019-05-15T13:40:01.647Z,100242.47
2019-05-15T13:42:33.838Z,100233.80
2019-05-15T13:45:12.111Z,100241.78
2019-05-15T13:47:40.818Z,100245.50
2019-05-15T13:50:13.156Z,100238.47
2019-05-15T13:52:45.442Z,100230.23
2019-05-15T13:55:24.673Z,100225.46
2019-05-15T13:57:51.582Z,100223.92
2019-05-15T14:00:24.197Z,100222.81
2019-05-15T14:02:58.458Z,100220.05
2019-05-15T14:05:30.795Z,100208.76
2019-05-15T14:08:02.969Z,100209.22
2019-05-15T14:10:35.272Z,100205.16
2019-05-15T14:13:07.466Z,100206.81
2019-05-15T14:15:39.766Z,100200.54
2019-05-15T14:18:14.099Z,100196.52
2019-05-15T14:20:45.952Z,100197.73
2019-05-15T14:23:18.662Z,100196.31
2019-05-15T14:25:51.330Z,100194.30
2019-05-15T14:28:23.704Z,100201.59
2019-05-15T14:30:58.644Z,100201.42
2019-05-15T14:33:30.365Z,100208.32
2019-05-15T14:36:02.618Z,100204.46
2019-05-15T14:38:34.847Z,100202.05
2019-05-15T14:41:08.781Z,100199.22
2019-05-15T14:43:41.496Z,100198.39
2019-05-15T14:46:14.062Z,100190.31
2019-05-15T14:48:49.061Z,100186.84
2019-05-15T14:51:21.295Z,100183.25
2019-05-15T14:53:53.683Z,100181.03
2019-05-15T14:56:26.001Z,100185.31
2019-05-15T14:58:58.662Z,100194.84
2019-05-15T15:01:30.970Z,100189.20
2019-05-15T15:04:03.250Z,100185.57
2019-05-15T15:06:35.633Z,100191.44
2019-05-15T15:09:09.556Z,100198.36
2019-05-15T15:11:41.928Z,100193.48
2019-05-15T15:14:14.251Z,100201.78
2019-05-15T15:16:48.819Z,100201.20
2019-05-15T15:19:20.649Z,100203.00
2019-05-15T15:21:52.992Z,100195.52
2019-05-15T15:24:25.270Z,100187.86
2019-05-15T15:26:58.865Z,100188.88
2019-05-15T15:29:31.277Z,100193.13
2019-05-15T15:32:03.394Z,100195.99
2019-05-15T15:34:35.757Z,100200.86
2019-05-15T15:37:08.438Z,100203.92
2019-05-15T15:39:40.794Z,100208.40
2019-05-15T15:42:13.345Z,100204.96
2019-05-15T15:44:45.843Z,100197.30
2019-05-15T15:47:18.266Z,100199.92
2019-05-15T15:49:50.463Z,100200.73
2019-05-15T15:52:22.703Z,100200.55
2019-05-15T15:54:55.374Z,100209.07
2019-05-15T15:57:28.570Z,100213.34
2019-05-15T16:00:01.045Z,100215.20
2019-05-15T16:02:33.184Z,100209.95
2019-05-15T16:05:05.518Z,100216.86
2019-05-15T16:07:39.345Z,100214.86
2019-05-15T16:10:12.355Z,100216.08
2019-05-15T16:12:44.697Z,100219.94
2019-05-15T16:15:18.061Z,100222.34
2019-05-15T16:17:50.720Z,100224.19
2019-05-15T16:20:23.539Z,100218.72
2019-05-15T16:22:56.045Z,100213.69
2019-05-15T16:25:28.823Z,100214.29
2019-05-15T16:28:01.181Z,100214.31
2019-05-15T16:30:47.146Z,100215.32
2019-05-15T16:33:09.560Z,100215.51
2019-05-15T16:35:41.388Z,100225.62
2019-05-15T16:38:13.922Z,100225.42
2019-05-15T16:40:46.202Z,100231.23
2019-05-15T16:43:20.064Z,100236.31
2019-05-15T16:45:52.510Z,100253.08
2019-05-15T16:48:24.772Z,100254.08
2019-05-15T16:50:58.070Z,100265.19
2019-05-15T16:53:30.399Z,100260.94
2019-05-15T16:56:02.960Z,100262.56
2019-05-15T16:58:35.191Z,100269.22
2019-05-15T17:01:07.442Z,100268.39
2019-05-15T17:03:39.580Z,100271.01
2019-05-15T17:06:11.905Z,100276.24
2019-05-15T17:08:44.428Z,100275.82
2019-05-15T17:11:16.631Z,100282.09
2019-05-15T17:13:48.873Z,100284.70
2019-05-15T17:16:21.214Z,100286.90
2019-05-15T17:18:53.942Z,100287.89
2019-05-15T17:21:28.273Z,100287.03
2019-05-15T17:24:00.192Z,100280.99
2019-05-15T17:26:32.320Z,100282.58
2019-05-15T17:29:04.514Z,100274.09
2019-05-15T17:31:37.979Z,100280.14
2019-05-15T17:34:10.502Z,100282.74
2019-05-15T17:36:43.745Z,100295.84
2019-05-15T17:39:15.866Z,100294.03
2019-05-15T17:41:48.387Z,100287.97
2019-05-15T17:44:20.846Z,100284.31
2019-05-15T17:46:53.699Z,100287.75
2019-05-15T17:49:27.937Z,100283.52
2019-05-15T17:52:00.205Z,100283.31
2019-05-15T17:54:32.619Z,100288.75
2019-05-15T17:57:05.026Z,100284.30
2019-05-15T17:59:37.920Z,100279.06
2019-05-15T18:02:10.774Z,100282.30
2019-05-15T18:04:43.103Z,100285.49
2019-05-15T18:07:15.726Z,100299.62
2019-05-15T18:09:53.916Z,100297.20
2019-05-15T18:12:22.091Z,100303.22
2019-05-15T18:14:54.365Z,100309.48
2019-05-15T18:17:26.577Z,100312.72
2019-05-15T18:19:58.728Z,100318.16
2019-05-15T18:22:31.257Z,100324.18
2019-05-15T18:25:03.479Z,100330.23
2019-05-15T18:27:38.535Z,100332.84
2019-05-15T18:30:10.631Z,100327.61
2019-05-15T18:32:43.108Z,100329.39
2019-05-15T18:35:18.613Z,100338.89
2019-05-15T18:37:50.139Z,100345.13
2019-05-15T18:40:22.349Z,100342.91
2019-05-15T18:42:54.792Z,100348.34
2019-05-15T18:45:28.890Z,100344.52
2019-05-15T18:48:02.344Z,100343.11
2019-05-15T18:50:34.729Z,100347.71
2019-05-15T18:53:08.996Z,100342.28
2019-05-15T18:55:41.123Z,100344.30
2019-05-15T18:58:13.460Z,100343.69
2019-05-15T19:00:45.758Z,100351.95
2019-05-15T19:03:22.591Z,100355.76
2019-05-15T19:05:53.471Z,100350.11
2019-05-15T19:08:27.826Z,100350.52
2019-05-15T19:10:59.591Z,100352.75
2019-05-15T19:13:32.807Z,100353.74
2019-05-15T19:16:05.395Z,100353.34
2019-05-15T19:18:38.514Z,100348.09
2019-05-15T19:21:11.167Z,100347.89
2019-05-15T19:23:43.640Z,100349.30
2019-05-15T19:26:18.009Z,100348.84
2019-05-15T19:28:49.941Z,100340.38
2019-05-15T19:31:27.046Z,100344.18
2019-05-15T19:33:56.588Z,100334.49
2019-05-15T19:36:29.072Z,100329.25
2019-05-15T19:39:03.713Z,100321.36
2019-05-15T19:41:38.115Z,100328.21
2019-05-15T19:44:15.147Z,100319.53
2019-05-15T19:46:47.991Z,100321.95
2019-05-15T19:49:20.525Z,100317.88
2019-05-15T19:51:52.953Z,100319.30
2019-05-15T19:54:25.939Z,100322.13
2019-05-15T19:56:58.567Z,100317.67
2019-05-15T19:59:31.104Z,100308.62
2019-05-15T20:02:03.897Z,100304.39
2019-05-15T20:04:38.425Z,100309.62
2019-05-15T20:07:10.083Z,100302.36
2019-05-15T20:09:42.855Z,100305.18
2019-05-15T20:12:15.346Z,100295.30
2019-05-15T20:14:48.850Z,100297.54
2019-05-15T20:17:21.518Z,100294.91
2019-05-15T20:19:53.994Z,100297.52
2019-05-15T20:22:28.386Z,100296.69
2019-05-15T20:25:00.907Z,100297.12
2019-05-15T20:27:33.413Z,100285.03
2019-05-15T20:30:08.179Z,100284.81
2019-05-15T20:32:39.832Z,100282.79
2019-05-15T20:35:12.899Z,100286.02
2019-05-15T20:37:45.184Z,100277.34
2019-05-15T20:40:19.049Z,100270.66
2019-05-15T20:42:51.302Z,100273.09
2019-05-15T20:45:23.648Z,100265.81
2019-05-15T20:47:58.123Z,100265.61
2019-05-15T20:50:30.008Z,100266.01
2019-05-15T20:53:02.370Z,100260.53
2019-05-15T20:55:34.726Z,100258.72
2019-05-15T20:58:08.046Z,100254.86
2019-05-15T21:00:41.087Z,100250.82
2019-05-15T21:03:13.607Z,100249.99
2019-05-15T21:05:46.024Z,100245.95
2019-05-15T21:08:18.409Z,100245.94
2019-05-15T21:10:50.718Z,100240.06
2019-05-15T21:13:22.997Z,100237.42
2019-05-15T21:15:55.332Z,100241.23
2019-05-15T21:18:28.979Z,100241.84
2019-05-15T21:21:01.721Z,100239.41
2019-05-15T21:23:34.379Z,100230.94
2019-05-15T21:26:07.839Z,100227.53
2019-05-15T21:28:41.152Z,100219.28
2019-05-15T21:31:13.775Z,100219.65
2019-05-15T21:33:48.184Z,100216.41
2019-05-15T21:36:20.303Z,100215.40
2019-05-15T21:38:52.772Z,100207.92
2019-05-15T21:41:25.336Z,100213.56
2019-05-15T21:43:59.311Z,100210.16
2019-05-15T21:46:31.709Z,100211.73
2019-05-15T21:49:04.120Z,100213.97
2019-05-15T21:51:38.064Z,100214.38
2019-05-15T21:54:10.407Z,100211.09
2019-05-15T21:56:43.258Z,100208.27
2019-05-15T21:59:15.625Z,100208.86
2019-05-15T22:01:49.175Z,100210.88
2019-05-15T22:04:22.445Z,100214.11
2019-05-15T22:06:54.713Z,100210.03
2019-05-15T22:09:29.041Z,100208.81
2019-05-15T22:12:02.224Z,100197.94
2019-05-15T22:14:34.568Z,100197.72
2019-05-15T22:17:09.208Z,100194.91
2019-05-15T22:19:41.025Z,100180.40
2019-05-15T22:22:13.837Z,100181.59
2019-05-15T22:24:48.389Z,100179.97
2019-05-15T22:27:21.346Z,100180.59
2019-05-15T22:29:54.006Z,100186.81
2019-05-15T22:32:29.043Z,100178.97
2019-05-15T22:35:09.291Z,100180.19
2019-05-15T22:37:34.785Z,100171.35
2019-05-15T22:40:08.871Z,100167.70
2019-05-15T22:42:41.345Z,100167.13
2019-05-15T22:45:18.211Z,100165.89
2019-05-15T22:47:49.484Z,100156.84
2019-05-15T22:50:21.799Z,100154.03
2019-05-15T22:52:54.066Z,100151.61
2019-05-15T22:55:28.648Z,100152.20
2019-05-15T22:58:00.224Z,100147.17
2019-05-15T23:00:32.808Z,100145.97
2019-05-15T23:03:05.085Z,100141.91
2019-05-15T23:05:37.143Z,100139.27
2019-05-15T23:08:09.719Z,100138.25
2019-05-15T23:10:42.301Z,100133.59
2019-05-15T23:13:14.990Z,100137.19
2019-05-15T23:15:47.768Z,100134.37
2019-05-15T23:18:22.727Z,100130.14
2019-05-15T23:20:55.010Z,100127.32
2019-05-15T23:23:28.604Z,100135.20
2019-05-15T23:26:01.512Z,100135.99
2019-05-15T23:28:34.087Z,100131.97
2019-05-15T23:31:08.311Z,100129.95
2019-05-15T23:33:40.333Z,100112.64
2019-05-15T23:36:12.603Z,100114.05
2019-05-15T23:38:44.746Z,100122.88
2019-05-15T23:41:18.862Z,100128.31
2019-05-15T23:43:51.295Z,100124.91
2019-05-15T23:46:23.649Z,100133.58
2019-05-15T23:48:55.910Z,100144.03
2019-05-15T23:51:28.228Z,100166.98
2019-05-15T23:54:00.409Z,100155.07
2019-05-15T23:56:32.599Z,100136.52
2019-05-15T23:59:04.881Z,100141.52
